sensor_id;sensor_type;location;lat;lon;timestamp;pressure;altitude;pressure_sealevel;temperature;humidity
72612;BME280;60655;52.182;4.474;2024-03-23T00:52:48;101016.09;;;8.06;100.00
72612;BME280;60655;52.182;4.474;2024-03-23T00:54:48;101019.38;;;8.08;100.00
72612;BME280;60655;52.182;4.474;2024-03-23T00:56:49;101011.56;;;8.00;100.00
72612;BME280;60655;52.182;4.474;2024-03-23T00:58:50;101012.38;;;8.00;100.00
72612;BME280;60655;52.182;4.474;2024-03-23T01:00:51;101007.25;;;7.92;100.00
72612;BME280;60655;52.182;4.474;2024-03-23T01:02:51;101008.31;;;7.98;100.00
72612;BME280;60655;52.182;4.474;2024-03-23T01:04:52;101001.75;;;7.94;100.00
72612;BME280;60655;52.182;4.474;2024-03-23T01:06:53;101005.59;;;7.91;100.00
72612;BME280;60655;52.182;4.474;2024-03-23T01:08:54;100998.44;;;7.85;100.00
72612;BME280;60655;52.182;4.474;2024-03-23T01:10:58;100999.25;;;7.79;100.00
72612;BME280;60655;52.182;4.474;2024-03-23T01:13:00;100991.50;;;7.77;100.00
72612;BME280;60655;52.182;4.474;2024-03-23T01:15:00;100991.09;;;7.80;100.00
72612;BME280;60655;52.182;4.474;2024-03-23T01:17:02;100985.81;;;7.80;100.00
72612;BME280;60655;52.182;4.474;2024-03-23T01:19:02;100986.84;;;7.79;100.00
72612;BME280;60655;52.182;4.474;2024-03-23T01:21:03;100990.06;;;7.82;99.35
72612;BME280;60655;52.182;4.474;2024-03-23T01:23:04;100987.03;;;7.78;98.53
72612;BME280;60655;52.182;4.474;2024-03-23T01:25:05;100993.34;;;7.84;97.94
72612;BME280;60655;52.182;4.474;2024-03-23T01:27:06;100992.69;;;7.75;97.56
72612;BME280;60655;52.182;4.474;2024-03-23T01:29:07;100990.44;;;7.72;95.20
72612;BME280;60655;52.182;4.474;2024-03-23T01:31:08;100991.09;;;7.80;95.59
72612;BME280;60655;52.182;4.474;2024-03-23T01:33:08;100992.72;;;7.82;95.41
72612;BME280;60655;52.182;4.474;2024-03-23T01:35:09;100986.22;;;7.77;93.16
72612;BME280;60655;52.182;4.474;2024-03-23T01:37:10;100988.28;;;7.89;94.11
72612;BME280;60655;52.182;4.474;2024-03-23T01:39:11;100985.25;;;7.92;94.23
72612;BME280;60655;52.182;4.474;2024-03-23T01:41:12;100983.63;;;7.91;92.59
72612;BME280;60655;52.182;4.474;2024-03-23T01:43:13;100972.03;;;7.92;93.75
72612;BME280;60655;52.182;4.474;2024-03-23T01:45:14;100975.94;;;7.96;92.90
72612;BME280;60655;52.182;4.474;2024-03-23T01:47:14;100968.38;;;7.93;93.98
72612;BME280;60655;52.182;4.474;2024-03-23T01:49:15;100975.06;;;7.89;93.30
72612;BME280;60655;52.182;4.474;2024-03-23T01:51:16;100970.78;;;7.88;91.29
72612;BME280;60655;52.182;4.474;2024-03-23T01:53:17;100974.88;;;7.90;92.09
72612;BME280;60655;52.182;4.474;2024-03-23T01:55:20;100975.50;;;7.92;91.23
72612;BME280;60655;52.182;4.474;2024-03-23T01:57:21;100975.25;;;7.87;91.28
72612;BME280;60655;52.182;4.474;2024-03-23T01:59:22;100977.56;;;7.97;91.66
72612;BME280;60655;52.182;4.474;2024-03-23T02:01:24;100965.31;;;7.89;91.53
72612;BME280;60655;52.182;4.474;2024-03-23T02:03:25;100966.31;;;7.88;92.13
72612;BME280;60655;52.182;4.474;2024-03-23T02:05:26;100970.78;;;7.88;92.40
72612;BME280;60655;52.182;4.474;2024-03-23T02:07:27;100966.13;;;7.90;91.36
72612;BME280;60655;52.182;4.474;2024-03-23T02:09:28;100967.53;;;7.86;90.45
72612;BME280;60655;52.182;4.474;2024-03-23T02:11:29;100956.56;;;7.89;91.35
72612;BME280;60655;52.182;4.474;2024-03-23T02:13:29;100954.94;;;7.88;90.63
72612;BME280;60655;52.182;4.474;2024-03-23T02:15:32;100957.34;;;7.83;90.59
72612;BME280;60655;52.182;4.474;2024-03-23T02:17:33;100953.06;;;7.82;91.37
72612;BME280;60655;52.182;4.474;2024-03-23T02:19:34;100952.84;;;7.76;91.95
72612;BME280;60655;52.182;4.474;2024-03-23T02:21:35;100953.44;;;7.72;89.68
72612;BME280;60655;52.182;4.474;2024-03-23T02:23:36;100947.38;;;7.78;86.72
72612;BME280;60655;52.182;4.474;2024-03-23T02:25:37;100938.63;;;7.84;88.38
72612;BME280;60655;52.182;4.474;2024-03-23T02:27:37;100934.34;;;7.83;87.46
72612;BME280;60655;52.182;4.474;2024-03-23T02:29:39;100934.16;;;7.78;86.02
72612;BME280;60655;52.182;4.474;2024-03-23T02:31:40;100929.88;;;7.77;87.39
72612;BME280;60655;52.182;4.474;2024-03-23T02:33:41;100930.88;;;7.76;86.76
72612;BME280;60655;52.182;4.474;2024-03-23T02:35:43;100931.06;;;7.74;86.35
72612;BME280;60655;52.182;4.474;2024-03-23T02:37:46;100928.22;;;7.76;86.51
72612;BME280;60655;52.182;4.474;2024-03-23T02:39:47;100929.44;;;7.73;86.39
72612;BME280;60655;52.182;4.474;2024-03-23T02:41:47;100920.50;;;7.81;86.53
72612;BME280;60655;52.182;4.474;2024-03-23T02:43:52;100923.56;;;7.78;87.39
72612;BME280;60655;52.182;4.474;2024-03-23T02:45:53;100926.00;;;7.79;86.33
72612;BME280;60655;52.182;4.474;2024-03-23T02:47:54;100925.19;;;7.79;86.65
72612;BME280;60655;52.182;4.474;2024-03-23T02:49:54;100920.25;;;7.69;86.29
72612;BME280;60655;52.182;4.474;2024-03-23T02:51:55;100914.53;;;7.66;87.51
72612;BME280;60655;52.182;4.474;2024-03-23T02:53:56;100910.72;;;7.75;86.09
72612;BME280;60655;52.182;4.474;2024-03-23T02:55:58;100915.00;;;7.76;85.83
72612;BME280;60655;52.182;4.474;2024-03-23T02:57:59;100914.41;;;7.80;87.05
72612;BME280;60655;52.182;4.474;2024-03-23T03:00:03;100909.53;;;7.77;85.50
72612;BME280;60655;52.182;4.474;2024-03-23T03:02:04;100907.88;;;7.76;86.68
72612;BME280;60655;52.182;4.474;2024-03-23T03:04:05;100915.00;;;7.76;88.33
72612;BME280;60655;52.182;4.474;2024-03-23T03:06:06;100915.25;;;7.88;89.40
72612;BME280;60655;52.182;4.474;2024-03-23T03:08:07;100916.84;;;7.82;88.55
72612;BME280;60655;52.182;4.474;2024-03-23T03:10:08;100910.75;;;7.82;89.32
72612;BME280;60655;52.182;4.474;2024-03-23T03:12:11;100900.16;;;7.82;90.34
72612;BME280;60655;52.182;4.474;2024-03-23T03:14:12;100910.16;;;7.79;89.97
72612;BME280;60655;52.182;4.474;2024-03-23T03:16:13;100897.91;;;7.72;89.32
72612;BME280;60655;52.182;4.474;2024-03-23T03:18:14;100905.44;;;7.75;89.89
72612;BME280;60655;52.182;4.474;2024-03-23T03:20:15;100906.84;;;7.71;89.86
72612;BME280;60655;52.182;4.474;2024-03-23T03:22:18;100896.84;;;7.66;89.52
72612;BME280;60655;52.182;4.474;2024-03-23T03:24:19;100894.81;;;7.68;90.28
72612;BME280;60655;52.182;4.474;2024-03-23T03:26:19;100903.34;;;7.64;90.97
72612;BME280;60655;52.182;4.474;2024-03-23T03:28:20;100908.34;;;7.52;89.38
72612;BME280;60655;52.182;4.474;2024-03-23T03:30:21;100903.28;;;7.51;90.17
72612;BME280;60655;52.182;4.474;2024-03-23T03:32:22;100904.69;;;7.53;88.78
72612;BME280;60655;52.182;4.474;2024-03-23T03:34:23;100901.84;;;7.55;89.80
72612;BME280;60655;52.182;4.474;2024-03-23T03:36:24;100896.56;;;7.55;89.77
72612;BME280;60655;52.182;4.474;2024-03-23T03:38:25;100889.03;;;7.52;90.26
72612;BME280;60655;52.182;4.474;2024-03-23T03:40:26;100895.75;;;7.54;90.79
72612;BME280;60655;52.182;4.474;2024-03-23T03:42:27;100891.47;;;7.53;91.00
72612;BME280;60655;52.182;4.474;2024-03-23T03:44:27;100887.19;;;7.52;90.40
72612;BME280;60655;52.182;4.474;2024-03-23T03:46:28;100886.78;;;7.49;90.78
72612;BME280;60655;52.182;4.474;2024-03-23T03:48:29;100876.38;;;7.40;89.92
72612;BME280;60655;52.182;4.474;2024-03-23T03:50:30;100885.94;;;7.41;89.55
72612;BME280;60655;52.182;4.474;2024-03-23T03:52:31;100887.13;;;7.39;89.24
72612;BME280;60655;52.182;4.474;2024-03-23T03:54:33;100884.69;;;7.37;88.70
72612;BME280;60655;52.182;4.474;2024-03-23T03:56:34;100873.28;;;7.37;88.17
72612;BME280;60655;52.182;4.474;2024-03-23T03:58:34;100876.19;;;7.42;89.36
72612;BME280;60655;52.182;4.474;2024-03-23T04:00:35;100869.44;;;7.39;88.35
72612;BME280;60655;52.182;4.474;2024-03-23T04:02:40;100868.25;;;7.42;88.75
72612;BME280;60655;52.182;4.474;2024-03-23T04:04:41;100876.59;;;7.45;89.27
72612;BME280;60655;52.182;4.474;2024-03-23T04:06:43;100876.56;;;7.39;89.83
72612;BME280;60655;52.182;4.474;2024-03-23T04:08:44;100855.75;;;7.29;91.09
72612;BME280;60655;52.182;4.474;2024-03-23T04:10:45;100860.41;;;7.27;90.68
72612;BME280;60655;52.182;4.474;2024-03-23T04:12:47;100877.09;;;7.28;91.40
72612;BME280;60655;52.182;4.474;2024-03-23T04:14:47;100867.38;;;7.35;90.63
72612;BME280;60655;52.182;4.474;2024-03-23T04:16:48;100873.25;;;7.30;91.87
72612;BME280;60655;52.182;4.474;2024-03-23T04:18:49;100868.00;;;7.37;92.49
72612;BME280;60655;52.182;4.474;2024-03-23T04:20:50;100869.84;;;7.36;92.75
72612;BME280;60655;52.182;4.474;2024-03-23T04:22:51;100864.97;;;7.40;93.69
72612;BME280;60655;52.182;4.474;2024-03-23T04:24:56;100861.41;;;7.26;93.09
72612;BME280;60655;52.182;4.474;2024-03-23T04:26:57;100863.91;;;7.34;93.31
72612;BME280;60655;52.182;4.474;2024-03-23T04:28:58;100864.53;;;7.36;93.77
72612;BME280;60655;52.182;4.474;2024-03-23T04:31:03;100854.97;;;7.35;94.10
72612;BME280;60655;52.182;4.474;2024-03-23T04:33:04;100845.63;;;7.33;94.42
72612;BME280;60655;52.182;4.474;2024-03-23T04:35:06;100862.53;;;7.38;94.34
72612;BME280;60655;52.182;4.474;2024-03-23T04:37:07;100857.44;;;7.37;94.58
72612;BME280;60655;52.182;4.474;2024-03-23T04:39:08;100869.84;;;7.36;95.01
72612;BME280;60655;52.182;4.474;2024-03-23T04:41:09;100863.72;;;7.36;95.05
72612;BME280;60655;52.182;4.474;2024-03-23T04:43:11;100863.91;;;7.34;94.67
72612;BME280;60655;52.182;4.474;2024-03-23T04:45:12;100868.78;;;7.31;94.89
72612;BME280;60655;52.182;4.474;2024-03-23T04:47:13;100865.94;;;7.32;95.19
72612;BME280;60655;52.182;4.474;2024-03-23T04:49:14;100864.16;;;7.39;95.61
72612;BME280;60655;52.182;4.474;2024-03-23T04:51:24;100863.97;;;7.41;95.84
72612;BME280;60655;52.182;4.474;2024-03-23T04:53:25;100863.78;;;7.42;96.03
72612;BME280;60655;52.182;4.474;2024-03-23T04:55:29;100872.13;;;7.46;95.48
72612;BME280;60655;52.182;4.474;2024-03-23T04:57:30;100867.47;;;7.48;95.72
72612;BME280;60655;52.182;4.474;2024-03-23T04:59:31;100879.06;;;7.47;96.10
72612;BME280;60655;52.182;4.474;2024-03-23T05:01:32;100869.63;;;7.38;94.51
72612;BME280;60655;52.182;4.474;2024-03-23T05:03:32;100872.09;;;7.39;93.24
72612;BME280;60655;52.182;4.474;2024-03-23T05:05:33;100856.97;;;7.27;92.69
72612;BME280;60655;52.182;4.474;2024-03-23T05:07:34;100875.75;;;7.38;92.57
72612;BME280;60655;52.182;4.474;2024-03-23T05:09:35;100872.09;;;7.39;92.30
72612;BME280;60655;52.182;4.474;2024-03-23T05:11:35;100870.22;;;7.33;92.50
72612;BME280;60655;52.182;4.474;2024-03-23T05:13:36;100870.03;;;7.35;91.39
72612;BME280;60655;52.182;4.474;2024-03-23T05:15:37;100869.44;;;7.39;92.28
72612;BME280;60655;52.182;4.474;2024-03-23T05:17:38;100860.28;;;7.35;91.57
72612;BME280;60655;52.182;4.474;2024-03-23T05:19:39;100863.06;;;7.27;91.56
72612;BME280;60655;52.182;4.474;2024-03-23T05:21:40;100866.31;;;7.29;91.30
72612;BME280;60655;52.182;4.474;2024-03-23T05:23:40;100866.91;;;7.25;91.74
72612;BME280;60655;52.182;4.474;2024-03-23T05:25:41;100871.78;;;7.21;92.13
72612;BME280;60655;52.182;4.474;2024-03-23T05:27:42;100864.06;;;7.26;92.07
72612;BME280;60655;52.182;4.474;2024-03-23T05:29:43;100861.00;;;7.23;93.12
72612;BME280;60655;52.182;4.474;2024-03-23T05:31:44;100867.91;;;7.24;93.82
72612;BME280;60655;52.182;4.474;2024-03-23T05:33:49;100866.72;;;7.26;94.47
72612;BME280;60655;52.182;4.474;2024-03-23T05:36:17;100861.41;;;7.20;95.76
72612;BME280;60655;52.182;4.474;2024-03-23T05:38:18;100860.97;;;7.16;95.11
72612;BME280;60655;52.182;4.474;2024-03-23T05:40:19;100859.78;;;7.25;97.13
72612;BME280;60655;52.182;4.474;2024-03-23T05:42:20;100863.81;;;7.15;96.60
72612;BME280;60655;52.182;4.474;2024-03-23T05:44:21;100866.25;;;7.16;96.52
72612;BME280;60655;52.182;4.474;2024-03-23T05:46:21;100864.63;;;7.15;95.60
72612;BME280;60655;52.182;4.474;2024-03-23T05:48:22;100862.13;;;7.07;95.94
72612;BME280;60655;52.182;4.474;2024-03-23T05:50:24;100859.72;;;7.12;96.32
72612;BME280;60655;52.182;4.474;2024-03-23T05:52:25;100856.00;;;7.06;95.82
72612;BME280;60655;52.182;4.474;2024-03-23T05:54:25;100855.06;;;7.14;96.96
72612;BME280;60655;52.182;4.474;2024-03-23T05:56:26;100853.44;;;7.13;96.54
72612;BME280;60655;52.182;4.474;2024-03-23T05:58:27;100849.91;;;7.06;97.18
72612;BME280;60655;52.182;4.474;2024-03-23T06:00:28;100851.13;;;7.03;96.14
72612;BME280;60655;52.182;4.474;2024-03-23T06:02:29;100857.03;;;7.05;95.98
72612;BME280;60655;52.182;4.474;2024-03-23T06:04:30;100853.31;;;7.00;96.24
72612;BME280;60655;52.182;4.474;2024-03-23T06:06:31;100857.91;;;7.13;96.58
72612;BME280;60655;52.182;4.474;2024-03-23T06:08:32;100865.44;;;7.16;97.67
72612;BME280;60655;52.182;4.474;2024-03-23T06:10:33;100861.59;;;7.18;98.06
72612;BME280;60655;52.182;4.474;2024-03-23T06:12:33;100864.13;;;7.05;96.55
72612;BME280;60655;52.182;4.474;2024-03-23T06:14:37;100853.31;;;7.00;95.02
72612;BME280;60655;52.182;4.474;2024-03-23T06:16:38;100859.72;;;7.12;94.69
72612;BME280;60655;52.182;4.474;2024-03-23T06:18:39;100856.31;;;7.18;94.84
72612;BME280;60655;52.182;4.474;2024-03-23T06:20:40;100861.53;;;7.11;95.26
72612;BME280;60655;52.182;4.474;2024-03-23T06:22:41;100857.06;;;7.12;96.24
72612;BME280;60655;52.182;4.474;2024-03-23T06:24:41;100869.09;;;7.15;95.51
72612;BME280;60655;52.182;4.474;2024-03-23T06:26:42;100863.75;;;7.08;95.26
72612;BME280;60655;52.182;4.474;2024-03-23T06:28:43;100862.75;;;7.09;94.61
72612;BME280;60655;52.182;4.474;2024-03-23T06:30:44;100859.84;;;7.04;94.63
72612;BME280;60655;52.182;4.474;2024-03-23T06:32:45;100861.28;;;7.06;94.66
72612;BME280;60655;52.182;4.474;2024-03-23T06:34:46;100869.03;;;7.08;94.82
72612;BME280;60655;52.182;4.474;2024-03-23T06:36:47;100862.13;;;7.07;95.38
72612;BME280;60655;52.182;4.474;2024-03-23T06:38:47;100863.38;;;7.11;95.82
72612;BME280;60655;52.182;4.474;2024-03-23T06:40:48;100851.97;;;7.10;95.12
72612;BME280;60655;52.182;4.474;2024-03-23T06:42:51;100857.78;;;7.27;95.54
72612;BME280;60655;52.182;4.474;2024-03-23T06:44:55;100854.56;;;7.32;95.08
72612;BME280;60655;52.182;4.474;2024-03-23T06:46:56;100859.50;;;7.41;93.63
72612;BME280;60655;52.182;4.474;2024-03-23T06:48:57;100851.63;;;7.48;93.25
72612;BME280;60655;52.182;4.474;2024-03-23T06:50:58;100869.50;;;7.46;92.73
72612;BME280;60655;52.182;4.474;2024-03-23T06:52:59;100855.56;;;7.31;91.49
72612;BME280;60655;52.182;4.474;2024-03-23T06:55:00;100853.97;;;7.36;91.31
72612;BME280;60655;52.182;4.474;2024-03-23T06:57:00;100868.81;;;7.37;91.73
72612;BME280;60655;52.182;4.474;2024-03-23T06:59:01;100859.78;;;7.25;90.61
72612;BME280;60655;52.182;4.474;2024-03-23T07:01:02;100863.91;;;7.34;89.94
72612;BME280;60655;52.182;4.474;2024-03-23T07:03:03;100867.28;;;7.50;91.42
72612;BME280;60655;52.182;4.474;2024-03-23T07:05:04;100864.41;;;7.51;91.19
72612;BME280;60655;52.182;4.474;2024-03-23T07:07:05;100858.75;;;7.54;92.39
72612;BME280;60655;52.182;4.474;2024-03-23T07:09:07;100856.47;;;7.51;91.35
72612;BME280;60655;52.182;4.474;2024-03-23T07:11:07;100869.50;;;7.46;90.70
72612;BME280;60655;52.182;4.474;2024-03-23T07:13:08;100862.97;;;7.42;91.14
72612;BME280;60655;52.182;4.474;2024-03-23T07:15:09;100860.28;;;7.35;91.35
72612;BME280;60655;52.182;4.474;2024-03-23T07:17:10;100872.53;;;7.43;91.75
72612;BME280;60655;52.182;4.474;2024-03-23T07:19:11;100874.41;;;7.56;90.90
72612;BME280;60655;52.182;4.474;2024-03-23T07:21:15;100863.84;;;7.56;89.79
72612;BME280;60655;52.182;4.474;2024-03-23T07:23:16;100868.72;;;7.59;89.29
72612;BME280;60655;52.182;4.474;2024-03-23T07:25:16;100861.06;;;7.70;88.67
72612;BME280;60655;52.182;4.474;2024-03-23T07:27:17;100867.53;;;7.61;89.28
72612;BME280;60655;52.182;4.474;2024-03-23T07:29:18;100863.44;;;7.59;88.88
72612;BME280;60655;52.182;4.474;2024-03-23T07:31:19;100860.19;;;7.57;89.29
72612;BME280;60655;52.182;4.474;2024-03-23T07:33:20;100868.81;;;7.72;88.79
72612;BME280;60655;52.182;4.474;2024-03-23T07:35:21;100859.44;;;7.69;88.66
72612;BME280;60655;52.182;4.474;2024-03-23T07:37:22;100856.84;;;7.76;89.11
72612;BME280;60655;52.182;4.474;2024-03-23T07:39:23;100860.50;;;7.75;86.87
72612;BME280;60655;52.182;4.474;2024-03-23T07:41:23;100869.88;;;7.84;87.11
72612;BME280;60655;52.182;4.474;2024-03-23T07:43:24;100864.00;;;7.89;85.42
72612;BME280;60655;52.182;4.474;2024-03-23T07:45:25;100860.53;;;7.88;85.46
72612;BME280;60655;52.182;4.474;2024-03-23T07:47:26;100849.97;;;7.95;85.16
72612;BME280;60655;52.182;4.474;2024-03-23T07:49:27;100854.88;;;7.98;85.50
72612;BME280;60655;52.182;4.474;2024-03-23T07:51:28;100861.75;;;7.92;84.27
72612;BME280;60655;52.182;4.474;2024-03-23T07:53:29;100852.16;;;7.85;85.16
72612;BME280;60655;52.182;4.474;2024-03-23T07:55:30;100847.69;;;7.78;85.75
72612;BME280;60655;52.182;4.474;2024-03-23T07:57:31;100856.84;;;7.83;87.70
72612;BME280;60655;52.182;4.474;2024-03-23T07:59:32;100856.41;;;7.72;87.18
72612;BME280;60655;52.182;4.474;2024-03-23T08:01:34;100849.94;;;7.88;87.36
72612;BME280;60655;52.182;4.474;2024-03-23T08:03:35;100855.47;;;7.93;87.55
72612;BME280;60655;52.182;4.474;2024-03-23T08:05:36;100863.59;;;7.92;87.26
72612;BME280;60655;52.182;4.474;2024-03-23T08:07:37;100844.88;;;7.93;88.12
72612;BME280;60655;52.182;4.474;2024-03-23T08:09:38;100857.53;;;7.98;87.44
72612;BME280;60655;52.182;4.474;2024-03-23T08:11:38;100862.56;;;7.86;87.23
72612;BME280;60655;52.182;4.474;2024-03-23T08:13:41;100850.72;;;7.82;87.70
72612;BME280;60655;52.182;4.474;2024-03-23T08:15:42;100850.19;;;7.93;87.58
72612;BME280;60655;52.182;4.474;2024-03-23T08:17:43;100858.50;;;7.90;87.29
72612;BME280;60655;52.182;4.474;2024-03-23T08:19:44;100848.94;;;7.89;87.44
72612;BME280;60655;52.182;4.474;2024-03-23T08:21:45;100863.78;;;7.90;87.19
72612;BME280;60655;52.182;4.474;2024-03-23T08:23:46;100852.03;;;7.99;88.12
72612;BME280;60655;52.182;4.474;2024-03-23T08:25:47;100857.53;;;8.11;87.75
72612;BME280;60655;52.182;4.474;2024-03-23T08:27:47;100850.44;;;8.18;86.70
72612;BME280;60655;52.182;4.474;2024-03-23T08:29:48;100845.94;;;8.05;84.41
72612;BME280;60655;52.182;4.474;2024-03-23T08:31:49;100865.38;;;7.85;84.79
72612;BME280;60655;52.182;4.474;2024-03-23T08:33:50;100860.28;;;7.76;84.94
72612;BME280;60655;52.182;4.474;2024-03-23T08:36:02;100858.03;;;7.80;86.87
72612;BME280;60655;52.182;4.474;2024-03-23T08:38:04;100852.34;;;7.76;86.41
72612;BME280;60655;52.182;4.474;2024-03-23T08:40:05;100847.06;;;7.83;85.18
72612;BME280;60655;52.182;4.474;2024-03-23T08:42:06;100846.06;;;7.84;85.39
72612;BME280;60655;52.182;4.474;2024-03-23T08:44:06;100846.91;;;7.91;84.82
72612;BME280;60655;52.182;4.474;2024-03-23T08:46:08;100844.13;;;8.12;84.28
72612;BME280;60655;52.182;4.474;2024-03-23T08:48:09;100848.19;;;8.02;85.53
72612;BME280;60655;52.182;4.474;2024-03-23T08:50:10;100843.75;;;8.22;85.77
72612;BME280;60655;52.182;4.474;2024-03-23T08:52:11;100852.16;;;8.32;83.58
72612;BME280;60655;52.182;4.474;2024-03-23T08:54:12;100856.22;;;8.35;80.01
72612;BME280;60655;52.182;4.474;2024-03-23T08:56:12;100850.88;;;8.22;82.18
72612;BME280;60655;52.182;4.474;2024-03-23T08:58:13;100839.28;;;8.29;82.63
72612;BME280;60655;52.182;4.474;2024-03-23T09:00:18;100853.72;;;8.27;81.18
72612;BME280;60655;52.182;4.474;2024-03-23T09:02:19;100847.19;;;8.16;80.53
72612;BME280;60655;52.182;4.474;2024-03-23T09:04:19;100854.09;;;8.10;80.93
72612;BME280;60655;52.182;4.474;2024-03-23T09:06:20;100845.13;;;8.11;82.79
72612;BME280;60655;52.182;4.474;2024-03-23T09:08:21;100833.78;;;8.24;83.41
72612;BME280;60655;52.182;4.474;2024-03-23T09:10:22;100846.56;;;8.14;84.07
72612;BME280;60655;52.182;4.474;2024-03-23T09:12:23;100856.47;;;7.92;85.84
72612;BME280;60655;52.182;4.474;2024-03-23T09:14:24;100843.69;;;8.02;83.08
72612;BME280;60655;52.182;4.474;2024-03-23T09:16:25;100847.22;;;8.23;81.62
72612;BME280;60655;52.182;4.474;2024-03-23T09:18:26;100852.31;;;8.31;80.83
72612;BME280;60655;52.182;4.474;2024-03-23T09:20:27;100847.22;;;8.23;81.57
72612;BME280;60655;52.182;4.474;2024-03-23T09:22:27;100857.81;;;8.29;81.26
72612;BME280;60655;52.182;4.474;2024-03-23T09:24:28;100851.50;;;8.30;82.67
72612;BME280;60655;52.182;4.474;2024-03-23T09:26:29;100854.50;;;8.14;81.52
72612;BME280;60655;52.182;4.474;2024-03-23T09:28:30;100847.22;;;8.23;82.41
72612;BME280;60655;52.182;4.474;2024-03-23T09:30:32;100851.25;;;8.19;81.43
72612;BME280;60655;52.182;4.474;2024-03-23T09:32:32;100856.53;;;8.12;83.08
72612;BME280;60655;52.182;4.474;2024-03-23T09:34:34;100857.06;;;8.35;82.90
72612;BME280;60655;52.182;4.474;2024-03-23T09:36:34;100849.63;;;8.18;78.79
72612;BME280;60655;52.182;4.474;2024-03-23T09:38:35;100854.00;;;8.45;80.87
72612;BME280;60655;52.182;4.474;2024-03-23T09:40:41;100854.63;;;8.67;80.65
72612;BME280;60655;52.182;4.474;2024-03-23T09:42:49;100854.41;;;8.68;81.98
72612;BME280;60655;52.182;4.474;2024-03-23T09:44:51;100847.72;;;8.79;80.71
72612;BME280;60655;52.182;4.474;2024-03-23T09:46:52;100857.28;;;8.73;79.38
72612;BME280;60655;52.182;4.474;2024-03-23T09:48:53;100857.06;;;8.68;79.52
72612;BME280;60655;52.182;4.474;2024-03-23T09:50:54;100854.84;;;8.59;82.11
72612;BME280;60655;52.182;4.474;2024-03-23T09:52:55;100844.41;;;8.37;82.49
72612;BME280;60655;52.182;4.474;2024-03-23T09:54:55;100859.66;;;8.29;81.19
72612;BME280;60655;52.182;4.474;2024-03-23T09:56:56;100862.66;;;8.06;79.54
72612;BME280;60655;52.182;4.474;2024-03-23T09:59:03;100849.50;;;8.32;79.35
72612;BME280;60655;52.182;4.474;2024-03-23T10:01:04;100845.25;;;8.58;80.50
72612;BME280;60655;52.182;4.474;2024-03-23T10:03:06;100851.56;;;8.70;80.01
72612;BME280;60655;52.182;4.474;2024-03-23T10:05:28;100850.16;;;8.74;78.16
72612;BME280;60655;52.182;4.474;2024-03-23T10:07:29;100857.91;;;8.62;78.29
72612;BME280;60655;52.182;4.474;2024-03-23T10:09:30;100858.25;;;8.33;78.58
72612;BME280;60655;52.182;4.474;2024-03-23T10:11:31;100856.22;;;8.41;77.92
72612;BME280;60655;52.182;4.474;2024-03-23T10:13:31;100850.78;;;8.63;77.93
72612;BME280;60655;52.182;4.474;2024-03-23T10:15:36;100848.50;;;8.73;78.06
72612;BME280;60655;52.182;4.474;2024-03-23T10:17:37;100846.28;;;8.57;79.65
72612;BME280;60655;52.182;4.474;2024-03-23T10:19:38;100859.53;;;8.63;80.53
72612;BME280;60655;52.182;4.474;2024-03-23T10:21:39;100856.47;;;8.73;79.69
72612;BME280;60655;52.182;4.474;2024-03-23T10:23:44;100852.19;;;8.85;78.30
72612;BME280;60655;52.182;4.474;2024-03-23T10:25:45;100847.69;;;8.72;79.58
72612;BME280;60655;52.182;4.474;2024-03-23T10:27:58;100849.31;;;8.47;81.81
72612;BME280;60655;52.182;4.474;2024-03-23T10:30:08;100844.63;;;8.49;78.89
72612;BME280;60655;52.182;4.474;2024-03-23T10:32:13;100849.84;;;8.23;78.91
72612;BME280;60655;52.182;4.474;2024-03-23T10:34:14;100847.84;;;8.31;79.48
72612;BME280;60655;52.182;4.474;2024-03-23T10:36:15;100854.63;;;8.54;80.62
72612;BME280;60655;52.182;4.474;2024-03-23T10:38:16;100834.25;;;8.67;80.45
72612;BME280;60655;52.182;4.474;2024-03-23T10:40:17;100847.72;;;8.79;80.21
72612;BME280;60655;52.182;4.474;2024-03-23T10:42:18;100847.50;;;8.80;81.13
72612;BME280;60655;52.182;4.474;2024-03-23T10:44:22;100846.69;;;8.87;78.77
72612;BME280;60655;52.182;4.474;2024-03-23T10:46:27;100846.47;;;9.01;76.45
72612;BME280;60655;52.182;4.474;2024-03-23T10:48:28;100842.38;;;8.99;77.00
72612;BME280;60655;52.182;4.474;2024-03-23T10:50:29;100836.91;;;8.67;76.20
72612;BME280;60655;52.182;4.474;2024-03-23T10:52:30;100845.06;;;8.59;77.78
72612;BME280;60655;52.182;4.474;2024-03-23T10:54:31;100835.69;;;8.76;78.26
72612;BME280;60655;52.182;4.474;2024-03-23T10:56:35;100818.78;;;8.84;78.11
72612;BME280;60655;52.182;4.474;2024-03-23T10:58:44;100848.09;;;9.09;78.71
72612;BME280;60655;52.182;4.474;2024-03-23T11:00:46;100844.66;;;8.89;75.85
72612;BME280;60655;52.182;4.474;2024-03-23T11:02:50;100849.72;;;8.70;76.42
72612;BME280;60655;52.182;4.474;2024-03-23T11:04:51;100833.84;;;8.70;77.12
72612;BME280;60655;52.182;4.474;2024-03-23T11:06:52;100825.91;;;8.90;79.47
72612;BME280;60655;52.182;4.474;2024-03-23T11:08:53;100829.88;;;9.39;76.21
72612;BME280;60655;52.182;4.474;2024-03-23T11:11:11;100844.56;;;9.48;75.63
72612;BME280;60655;52.182;4.474;2024-03-23T11:13:22;100830.34;;;9.16;74.44
72612;BME280;60655;52.182;4.474;2024-03-23T11:15:24;100840.59;;;8.86;75.90
72612;BME280;60655;52.182;4.474;2024-03-23T11:17:25;100840.38;;;8.81;74.91
72612;BME280;60655;52.182;4.474;2024-03-23T11:19:36;100828.56;;;8.77;72.82
72612;BME280;60655;52.182;4.474;2024-03-23T11:21:54;100820.81;;;8.62;73.64
72612;BME280;60655;52.182;4.474;2024-03-23T11:23:55;100820.00;;;8.82;76.01
72612;BME280;60655;52.182;4.474;2024-03-23T11:25:56;100829.78;;;8.88;76.42
72612;BME280;60655;52.182;4.474;2024-03-23T11:27:58;100827.53;;;8.71;74.44
72612;BME280;60655;52.182;4.474;2024-03-23T11:30:19;100815.88;;;9.12;76.56
72612;BME280;60655;52.182;4.474;2024-03-23T11:32:20;100814.00;;;9.26;73.52
72612;BME280;60655;52.182;4.474;2024-03-23T11:34:21;100807.06;;;9.31;75.48
72612;BME280;60655;52.182;4.474;2024-03-23T11:36:22;100804.22;;;9.26;73.97